createdAt,value
2018-06-22T00:00:08.252Z,17.40
2018-06-22T00:02:36.740Z,17.30
2018-06-22T00:05:06.388Z,17.30
2018-06-22T00:07:38.543Z,17.30
2018-06-22T00:10:07.020Z,17.30
2018-06-22T00:12:35.465Z,17.40
2018-06-22T00:15:04.027Z,17.40
2018-06-22T00:22:28.916Z,17.50
2018-06-22T00:24:58.342Z,17.60
2018-06-22T00:27:26.768Z,17.60
2018-06-22T00:29:55.365Z,17.60
2018-06-22T00:32:23.835Z,17.70
2018-06-22T00:34:53.434Z,17.70
2018-06-22T00:37:22.223Z,17.70
2018-06-22T00:39:50.663Z,17.70
2018-06-22T00:42:19.130Z,17.60
2018-06-22T00:44:47.561Z,17.50
2018-06-22T00:47:15.980Z,17.40
2018-06-22T00:49:44.479Z,17.50
2018-06-22T00:52:12.900Z,17.50
2018-06-22T00:54:41.330Z,17.50
2018-06-22T00:57:10.681Z,17.50
2018-06-22T00:59:39.127Z,17.50
2018-06-22T01:04:35.671Z,17.50
2018-06-22T01:07:04.091Z,17.50
2018-06-22T01:09:32.530Z,17.50
2018-06-22T01:16:59.441Z,17.50
2018-06-22T01:19:27.926Z,17.50
2018-06-22T01:21:56.434Z,17.50
2018-06-22T01:24:24.799Z,17.50
2018-06-22T01:26:53.178Z,17.60
2018-06-22T01:29:28.079Z,17.50
2018-06-22T01:31:56.584Z,17.50
2018-06-22T01:34:25.782Z,17.30
2018-06-22T01:36:55.299Z,17.20
2018-06-22T01:39:23.874Z,17.20
2018-06-22T01:41:52.477Z,17.20
2018-06-22T01:44:21.003Z,17.20
2018-06-22T01:46:49.450Z,17.30
2018-06-22T01:49:17.966Z,17.30
2018-06-22T01:51:46.495Z,17.20
2018-06-22T01:54:14.978Z,17.10
2018-06-22T01:56:43.442Z,17.10
2018-06-22T01:59:11.890Z,17.10
2018-06-22T02:01:40.392Z,17.10
2018-06-22T02:04:08.840Z,17.00
2018-06-22T02:06:37.370Z,17.00
2018-06-22T02:09:10.571Z,17.00
2018-06-22T02:11:39.122Z,17.10
2018-06-22T02:14:07.616Z,17.20
2018-06-22T02:16:36.492Z,17.10
2018-06-22T02:19:05.016Z,17.10
2018-06-22T02:21:33.555Z,17.00
2018-06-22T02:24:02.127Z,17.00
2018-06-22T02:26:30.571Z,17.00
2018-06-22T02:33:55.482Z,17.10
2018-06-22T02:36:23.964Z,17.10
2018-06-22T02:38:52.591Z,17.00
2018-06-22T02:41:21.099Z,17.00
2018-06-22T02:43:49.631Z,17.00
2018-06-22T02:48:46.345Z,17.10
2018-06-22T02:51:14.851Z,17.10
2018-06-22T02:53:43.331Z,17.10
2018-06-22T02:56:11.811Z,17.10
2018-06-22T02:58:40.359Z,17.10
2018-06-22T03:01:09.291Z,17.20
2018-06-22T03:06:05.927Z,17.10
2018-06-22T03:08:34.414Z,17.10
2018-06-22T03:11:02.903Z,16.90
2018-06-22T03:16:00.739Z,16.80
2018-06-22T03:18:29.234Z,16.80
2018-06-22T03:20:57.740Z,16.80
2018-06-22T03:23:26.270Z,16.70
2018-06-22T03:25:54.834Z,16.70
2018-06-22T03:28:23.971Z,16.80
2018-06-22T03:30:53.575Z,16.70
2018-06-22T03:33:22.382Z,16.70
2018-06-22T03:38:19.008Z,16.70
2018-06-22T03:40:47.695Z,16.70
2018-06-22T03:43:16.286Z,16.70
2018-06-22T03:45:44.759Z,16.60
2018-06-22T03:48:13.347Z,16.60
2018-06-22T03:50:41.911Z,16.50
2018-06-22T03:53:10.514Z,16.50
2018-06-22T03:58:07.271Z,16.60
2018-06-22T04:00:35.771Z,16.60
2018-06-22T04:03:04.290Z,16.60
2018-06-22T04:05:32.859Z,16.70
2018-06-22T04:17:55.155Z,16.80
2018-06-22T04:22:55.401Z,16.80
2018-06-22T04:25:25.020Z,16.70
2018-06-22T04:27:53.674Z,16.70
2018-06-22T04:30:22.682Z,16.70
2018-06-22T04:35:19.808Z,16.60
2018-06-22T04:37:48.409Z,16.60
2018-06-22T04:40:16.888Z,16.70
2018-06-22T04:42:45.469Z,16.70
2018-06-22T04:45:13.943Z,16.70
2018-06-22T04:47:43.250Z,16.80
2018-06-22T04:50:11.800Z,16.90
2018-06-22T04:52:41.102Z,17.00
2018-06-22T04:55:09.632Z,17.10
2018-06-22T04:57:38.170Z,17.10
2018-06-22T05:00:06.771Z,17.20
2018-06-22T05:02:35.354Z,17.30
2018-06-22T05:05:03.908Z,17.30
2018-06-22T05:07:32.443Z,17.30
2018-06-22T05:12:29.101Z,17.40
2018-06-22T05:14:57.573Z,17.50
2018-06-22T05:22:22.334Z,17.50
2018-06-22T05:24:50.869Z,17.60
2018-06-22T05:27:19.512Z,17.70
2018-06-22T05:29:48.006Z,17.60
2018-06-22T05:32:16.547Z,17.60
2018-06-22T05:34:45.143Z,17.60
2018-06-22T05:37:13.946Z,17.60
2018-06-22T05:39:42.474Z,17.60
2018-06-22T05:42:11.004Z,17.50
2018-06-22T05:44:40.248Z,17.50
2018-06-22T05:52:05.393Z,17.60
2018-06-22T05:57:02.129Z,17.60
2018-06-22T05:59:30.733Z,17.50
2018-06-22T06:01:59.289Z,17.60
2018-06-22T06:04:27.828Z,17.60
2018-06-22T06:06:56.352Z,17.70
2018-06-22T06:09:24.923Z,17.80
2018-06-22T06:11:53.503Z,18.00
2018-06-22T06:14:22.616Z,18.00
2018-06-22T06:16:51.210Z,18.00
2018-06-22T06:19:19.675Z,18.10
2018-06-22T06:26:44.475Z,18.10
2018-06-22T06:29:13.016Z,18.10
2018-06-22T06:31:41.464Z,18.10
2018-06-22T06:34:10.057Z,18.10
2018-06-22T06:39:07.703Z,18.10
2018-06-22T06:41:36.183Z,18.10
2018-06-22T06:44:06.946Z,18.30
2018-06-22T06:46:35.560Z,18.40
2018-06-22T06:49:04.475Z,18.70
2018-06-22T06:51:33.521Z,19.10
2018-06-22T06:54:04.298Z,19.60
2018-06-22T06:56:35.432Z,20.00
2018-06-22T06:59:04.422Z,21.10
2018-06-22T07:01:32.955Z,21.70
2018-06-22T07:06:30.323Z,21.80
2018-06-22T07:08:58.770Z,21.60
2018-06-22T07:11:27.384Z,21.30
2018-06-22T07:13:55.942Z,21.10
2018-06-22T07:16:24.939Z,20.80
2018-06-22T07:18:53.554Z,20.50
2018-06-22T07:21:22.041Z,20.30
2018-06-22T07:23:50.651Z,20.20
2018-06-22T07:26:19.213Z,20.10
2018-06-22T07:33:44.039Z,19.80
2018-06-22T07:38:41.014Z,19.80
2018-06-22T07:41:09.847Z,19.90
2018-06-22T07:43:38.416Z,20.00
2018-06-22T07:46:07.052Z,19.90
2018-06-22T07:48:35.515Z,19.90
2018-06-22T07:51:03.975Z,19.80
2018-06-22T07:53:32.466Z,19.90
2018-06-22T07:56:01.223Z,19.90
2018-06-22T07:58:29.858Z,20.00
2018-06-22T08:03:26.825Z,19.80
2018-06-22T08:08:24.086Z,19.70
2018-06-22T08:10:52.705Z,19.70
2018-06-22T08:13:21.228Z,19.70
2018-06-22T08:15:49.731Z,19.70
2018-06-22T08:18:21.555Z,19.50
2018-06-22T08:20:49.999Z,19.40
2018-06-22T08:23:18.449Z,19.30
2018-06-22T08:25:46.887Z,19.20
2018-06-22T08:28:17.361Z,19.20
2018-06-22T08:38:10.411Z,19.30
2018-06-22T08:40:38.918Z,19.50
2018-06-22T08:43:07.431Z,19.50
2018-06-22T08:48:04.140Z,19.70
2018-06-22T08:50:33.818Z,19.70
2018-06-22T08:53:02.462Z,19.60
2018-06-22T08:57:59.175Z,19.30
2018-06-22T09:00:27.858Z,19.20
2018-06-22T09:02:56.483Z,19.20
2018-06-22T09:05:24.971Z,19.20
2018-06-22T09:07:53.478Z,19.30
2018-06-22T09:10:21.962Z,19.40
2018-06-22T09:12:50.460Z,19.40
2018-06-22T09:15:18.982Z,19.40
2018-06-22T09:17:47.859Z,19.30
2018-06-22T09:20:16.457Z,19.40
2018-06-22T09:22:45.594Z,19.40
2018-06-22T09:25:14.147Z,19.30
2018-06-22T09:27:42.642Z,19.20
2018-06-22T09:30:11.206Z,19.10
2018-06-22T09:32:39.724Z,19.20
2018-06-22T09:35:08.882Z,19.30
2018-06-22T09:37:37.982Z,19.40
2018-06-22T09:42:34.834Z,19.80
2018-06-22T09:45:03.355Z,20.20
2018-06-22T09:47:31.900Z,20.50
2018-06-22T09:50:00.483Z,20.70
2018-06-22T09:52:29.017Z,20.60
2018-06-22T09:54:57.484Z,20.60
2018-06-22T09:57:26.050Z,20.60
2018-06-22T09:59:54.566Z,20.40
2018-06-22T10:02:23.033Z,20.10
2018-06-22T10:04:51.691Z,20.00
2018-06-22T10:07:20.189Z,19.90
2018-06-22T10:09:48.798Z,19.90
2018-06-22T10:12:17.454Z,20.10
2018-06-22T10:14:46.000Z,20.00
2018-06-22T10:17:14.494Z,19.90
2018-06-22T10:22:11.611Z,19.90
2018-06-22T10:24:40.076Z,19.80
2018-06-22T10:27:08.540Z,19.80
2018-06-22T10:29:37.088Z,19.70
2018-06-22T10:34:33.739Z,19.60
2018-06-22T10:37:02.223Z,19.60
2018-06-22T10:42:00.130Z,19.70
2018-06-22T10:44:28.643Z,19.70
2018-06-22T10:46:57.175Z,19.80
2018-06-22T10:49:29.046Z,20.00
2018-06-22T10:51:57.732Z,20.10
2018-06-22T10:54:26.339Z,20.30
2018-06-22T10:56:54.991Z,20.50
2018-06-22T11:01:51.738Z,20.90
2018-06-22T11:06:48.539Z,20.90
2018-06-22T11:09:17.695Z,21.00
2018-06-22T11:14:14.417Z,21.00
2018-06-22T11:16:43.436Z,21.00
2018-06-22T11:19:12.827Z,21.10
2018-06-22T11:21:41.316Z,21.30
2018-06-22T11:29:07.674Z,21.80
2018-06-22T11:31:50.579Z,21.70
2018-06-22T11:34:19.257Z,21.70
2018-06-22T11:36:47.889Z,21.70
2018-06-22T11:39:16.864Z,21.70
2018-06-22T11:44:15.793Z,21.80
2018-06-22T11:46:44.730Z,22.00
2018-06-22T11:49:13.263Z,22.00
2018-06-22T11:51:41.811Z,22.20
2018-06-22T11:54:10.489Z,22.20
2018-06-22T11:56:39.018Z,22.00
2018-06-22T11:59:07.556Z,21.70
2018-06-22T12:01:36.147Z,21.40
2018-06-22T12:04:05.642Z,21.00
2018-06-22T12:09:08.688Z,20.50
2018-06-22T12:11:37.321Z,20.50
2018-06-22T12:14:09.313Z,20.70
2018-06-22T12:16:38.100Z,21.00
2018-06-22T12:21:34.884Z,21.60
2018-06-22T12:24:03.461Z,21.80
2018-06-22T12:26:32.008Z,21.80
2018-06-22T12:29:03.004Z,21.70
2018-06-22T12:31:36.960Z,21.50
2018-06-22T12:34:05.668Z,21.30
2018-06-22T12:37:03.712Z,21.10
2018-06-22T12:39:50.143Z,21.20
2018-06-22T12:42:19.458Z,21.40
2018-06-22T12:47:40.332Z,21.70
2018-06-22T12:50:09.243Z,21.90
2018-06-22T12:53:05.202Z,22.20
2018-06-22T12:55:33.800Z,22.40
2018-06-22T12:58:02.371Z,22.20
2018-06-22T13:00:30.863Z,21.90
2018-06-22T13:05:54.398Z,21.60
2018-06-22T13:08:25.293Z,21.50
2018-06-22T13:10:53.861Z,21.40
2018-06-22T13:13:22.392Z,21.40
2018-06-22T13:15:51.118Z,21.40
2018-06-22T13:18:19.663Z,21.20
2018-06-22T13:20:49.161Z,20.90
2018-06-22T13:23:18.720Z,20.60
2018-06-22T13:25:47.202Z,20.60
2018-06-22T13:28:16.407Z,20.70
2018-06-22T13:30:44.982Z,20.70
2018-06-22T13:33:13.717Z,20.80
2018-06-22T13:35:42.201Z,20.90
2018-06-22T13:38:10.779Z,21.30
2018-06-22T13:43:07.867Z,21.90
2018-06-22T13:45:37.415Z,22.20
2018-06-22T13:48:06.155Z,22.40
2018-06-22T13:50:34.687Z,22.30
2018-06-22T13:53:03.157Z,22.20
2018-06-22T13:55:31.892Z,21.90
2018-06-22T13:58:00.688Z,21.60
2018-06-22T14:00:32.376Z,21.40
2018-06-22T14:03:00.921Z,21.40
2018-06-22T14:05:34.868Z,21.50
2018-06-22T14:08:03.438Z,21.50
2018-06-22T14:10:33.066Z,21.70
2018-06-22T14:13:01.711Z,21.70
2018-06-22T14:15:32.073Z,21.70
2018-06-22T14:18:01.881Z,21.90
2018-06-22T14:20:30.412Z,22.10
2018-06-22T14:22:59.076Z,22.40
2018-06-22T14:25:29.657Z,22.70
2018-06-22T14:28:03.349Z,22.90
2018-06-22T14:30:32.083Z,23.10
2018-06-22T14:33:03.316Z,23.40
2018-06-22T14:35:32.121Z,23.60
2018-06-22T14:38:05.471Z,23.60
2018-06-22T14:40:45.643Z,23.30
2018-06-22T14:43:14.171Z,22.90
2018-06-22T14:48:18.061Z,22.20
2018-06-22T14:50:46.583Z,22.00
2018-06-22T14:54:24.397Z,22.00
2018-06-22T14:56:58.203Z,22.00
2018-06-22T14:59:31.978Z,22.00
2018-06-22T15:02:10.615Z,22.00
2018-06-22T15:04:48.686Z,22.00
2018-06-22T15:07:24.094Z,21.90
2018-06-22T15:09:52.620Z,21.80
2018-06-22T15:12:21.726Z,21.80
2018-06-22T15:14:58.553Z,21.90
2018-06-22T15:17:29.115Z,22.00
2018-06-22T15:19:58.332Z,22.10
2018-06-22T15:22:26.853Z,22.20
2018-06-22T15:24:55.759Z,22.20
2018-06-22T15:27:24.297Z,22.30
2018-06-22T15:32:28.593Z,22.40
2018-06-22T15:35:02.557Z,22.40
2018-06-22T15:38:39.017Z,22.40
2018-06-22T15:41:18.723Z,22.30
2018-06-22T15:43:53.983Z,22.20
2018-06-22T15:49:08.641Z,22.20
2018-06-22T15:51:47.694Z,22.20
2018-06-22T15:54:21.642Z,22.20
2018-06-22T15:56:50.533Z,22.20
2018-06-22T15:59:27.806Z,22.20
2018-06-22T16:02:04.234Z,22.20
2018-06-22T16:04:32.728Z,22.00
2018-06-22T16:07:06.846Z,22.00
2018-06-22T16:09:39.603Z,22.10
2018-06-22T16:12:16.917Z,22.30
2018-06-22T16:14:52.846Z,22.50
2018-06-22T16:17:31.811Z,22.60
2018-06-22T16:20:05.771Z,22.60
2018-06-22T16:22:44.492Z,22.70
2018-06-22T16:25:18.496Z,22.80
2018-06-22T16:27:51.422Z,22.90
2018-06-22T16:30:24.260Z,22.80
2018-06-22T16:32:55.437Z,22.70
2018-06-22T16:35:26.246Z,22.60
2018-06-22T16:37:55.232Z,22.60
2018-06-22T16:40:26.270Z,22.60
2018-06-22T16:42:56.346Z,22.50
2018-06-22T16:45:31.936Z,22.40
2018-06-22T16:48:00.760Z,22.30
2018-06-22T16:50:31.330Z,22.20
2018-06-22T16:53:00.116Z,22.10
2018-06-22T16:55:28.779Z,22.20
2018-06-22T16:57:58.264Z,22.30
2018-06-22T17:01:30.172Z,22.30
2018-06-22T17:04:02.151Z,22.20
2018-06-22T17:06:35.916Z,22.30
2018-06-22T17:09:13.267Z,22.30
2018-06-22T17:11:50.682Z,22.40
2018-06-22T17:14:25.953Z,22.40
2018-06-22T17:17:00.344Z,22.40
2018-06-22T17:19:31.282Z,22.40
2018-06-22T17:22:00.924Z,22.40
2018-06-22T17:24:30.928Z,22.30
2018-06-22T17:26:59.983Z,22.20
2018-06-22T17:29:28.638Z,21.90
2018-06-22T17:32:00.396Z,21.80
2018-06-22T17:34:30.047Z,21.70
2018-06-22T17:37:01.632Z,21.60
2018-06-22T17:39:31.457Z,21.50
2018-06-22T17:42:03.443Z,21.40
2018-06-22T17:44:32.012Z,21.40
2018-06-22T17:47:08.031Z,21.30
2018-06-22T17:49:36.952Z,21.20
2018-06-22T17:52:05.500Z,21.00
2018-06-22T17:54:34.384Z,21.10
2018-06-22T17:57:02.951Z,21.20
2018-06-22T18:02:10.458Z,21.20
2018-06-22T18:04:40.872Z,21.10
2018-06-22T18:07:14.656Z,21.10
2018-06-22T18:09:50.521Z,21.20
2018-06-22T18:12:24.623Z,21.30
2018-06-22T18:14:53.046Z,21.50
2018-06-22T18:17:22.668Z,21.50
2018-06-22T18:19:51.211Z,21.40
2018-06-22T18:22:20.877Z,21.30
2018-06-22T18:24:50.323Z,21.30
2018-06-22T18:27:20.064Z,21.20
2018-06-22T18:29:49.643Z,21.00
2018-06-22T18:34:46.376Z,21.00
2018-06-22T18:37:16.917Z,21.00
2018-06-22T18:39:45.663Z,20.90
2018-06-22T18:42:14.300Z,20.70
2018-06-22T18:47:12.474Z,20.70
2018-06-22T18:52:24.545Z,20.70
2018-06-22T18:55:12.626Z,20.70
2018-06-22T18:57:50.992Z,20.60
2018-06-22T19:00:29.248Z,20.50
2018-06-22T19:03:02.918Z,20.40
2018-06-22T19:05:31.447Z,20.40
2018-06-22T19:08:00.533Z,20.30
2018-06-22T19:10:29.099Z,20.30
2018-06-22T19:12:57.792Z,20.20
2018-06-22T19:15:26.414Z,20.10
2018-06-22T19:17:55.171Z,20.00
2018-06-22T19:20:25.331Z,20.00
2018-06-22T19:22:53.880Z,20.00
2018-06-22T19:25:22.598Z,19.90
2018-06-22T19:27:51.204Z,19.90
2018-06-22T19:30:19.815Z,19.90
2018-06-22T19:32:48.668Z,19.90
2018-06-22T19:35:17.237Z,19.80
2018-06-22T19:37:45.757Z,19.80
2018-06-22T19:40:14.308Z,19.80
2018-06-22T19:42:43.441Z,19.80
2018-06-22T19:45:18.049Z,19.80
2018-06-22T19:47:52.122Z,19.90
2018-06-22T19:50:28.849Z,19.90
2018-06-22T19:53:03.854Z,19.80
2018-06-22T19:55:32.470Z,19.80
2018-06-22T19:58:01.008Z,19.80
2018-06-22T20:00:29.543Z,19.80
2018-06-22T20:02:58.064Z,19.80
2018-06-22T20:05:26.560Z,19.80
2018-06-22T20:07:56.419Z,19.80
2018-06-22T20:10:24.920Z,19.80
2018-06-22T20:12:53.497Z,19.70
2018-06-22T20:15:24.347Z,19.70
2018-06-22T20:17:53.669Z,19.60
2018-06-22T20:20:22.371Z,19.60
2018-06-22T20:22:52.269Z,19.60
2018-06-22T20:25:25.979Z,19.50
2018-06-22T20:27:54.610Z,19.50
2018-06-22T20:30:25.338Z,19.50
2018-06-22T20:32:54.055Z,19.40
2018-06-22T20:35:27.766Z,19.50
2018-06-22T20:38:01.565Z,19.40
2018-06-22T20:40:35.480Z,19.40
2018-06-22T20:44:08.155Z,19.40
2018-06-22T20:46:41.891Z,19.30
2018-06-22T20:49:15.871Z,19.20
2018-06-22T20:51:45.053Z,19.10
2018-06-22T20:54:14.391Z,19.10
2018-06-22T20:56:45.668Z,19.10
2018-06-22T20:59:15.847Z,19.10
2018-06-22T21:01:44.547Z,19.10
2018-06-22T21:04:13.843Z,19.10
2018-06-22T21:11:52.420Z,19.10
2018-06-22T21:14:22.176Z,19.00
2018-06-22T21:16:50.711Z,19.00
2018-06-22T21:19:19.221Z,19.00
2018-06-22T21:24:21.240Z,18.80
2018-06-22T21:26:49.919Z,18.80
2018-06-22T21:29:23.788Z,18.80
2018-06-22T21:34:34.170Z,18.70
2018-06-22T21:37:14.232Z,18.70
2018-06-22T21:39:42.980Z,18.70
2018-06-22T21:42:12.155Z,18.70
2018-06-22T21:44:40.717Z,18.60
2018-06-22T21:47:09.354Z,18.60
2018-06-22T21:49:39.845Z,18.60
2018-06-22T21:55:35.130Z,18.60
2018-06-22T21:58:10.404Z,18.60
2018-06-22T22:00:40.397Z,18.60
2018-06-22T22:05:48.824Z,18.50
2018-06-22T22:08:17.488Z,18.50
2018-06-22T22:10:51.360Z,18.50
2018-06-22T22:13:19.850Z,18.40
2018-06-22T22:15:50.632Z,18.40
2018-06-22T22:18:20.246Z,18.30
2018-06-22T22:20:48.844Z,18.30
2018-06-22T22:23:21.976Z,18.30
2018-06-22T22:25:54.158Z,18.30
2018-06-22T22:28:22.941Z,18.30
2018-06-22T22:33:21.300Z,18.20
2018-06-22T22:38:22.844Z,18.30
2018-06-22T22:40:51.371Z,18.30
2018-06-22T22:43:20.269Z,18.30
2018-06-22T22:45:49.008Z,18.30
2018-06-22T22:48:17.698Z,18.30
2018-06-22T22:50:46.227Z,18.30
2018-06-22T22:53:15.095Z,18.30
2018-06-22T22:55:44.434Z,18.30
2018-06-22T22:58:13.631Z,18.30
2018-06-22T23:00:42.734Z,18.20
2018-06-22T23:03:12.055Z,18.10
2018-06-22T23:05:40.671Z,18.20
2018-06-22T23:08:09.401Z,18.10
2018-06-22T23:10:38.059Z,18.10
2018-06-22T23:15:35.559Z,18.10
2018-06-22T23:18:04.438Z,18.10
2018-06-22T23:23:12.630Z,18.00
2018-06-22T23:25:44.400Z,18.00
2018-06-22T23:30:41.867Z,17.90
2018-06-22T23:33:10.497Z,17.80
2018-06-22T23:35:39.107Z,17.80
2018-06-22T23:38:07.687Z,17.90
2018-06-22T23:40:36.965Z,17.80
2018-06-22T23:43:05.625Z,17.80
2018-06-22T23:45:35.159Z,17.80
2018-06-22T23:48:03.743Z,17.80
2018-06-22T23:50:32.331Z,17.80
2018-06-22T23:53:01.843Z,17.80
2018-06-22T23:55:30.387Z,17.80
2018-06-22T23:57:59.009Z,17.70
